Detalhes do Voo

Voltar

 DETALHES DO VÔO

Piloto: GLD043 Jorge F. Aeronave: ToLiss319V1p4 Gold - 5 Distância: 1619NM
Origem: SBFL Destino: SBEG Duração: 6.22
Validação: Validado Tipo: Regular Matrícula: PR-GUP
ZFW: 109841 Block Fuel/Init FOB 17,594/0 Combustível em Voo 17,594
Passageiros: 0 Carga: 0 Alternativo: SBBE
Hora da Decolagem: 1025 Velocidade de Cruzeiro: N0453 Nível de Voo: FL380
Regra Visual: IFR ICAO da Aeronave: A319 Unidade de Peso: Kg
Data: 18/08/2020 Observação: GOLD ACARS Rede: IVAO
Acidentou?: Não Comentários do Validador: Pontuação do Voo 106.069

 ROTA

ROTA BODO2A.CTB CTB UZ63 LON W48 CIA UM782 SEDGA UM402 ISIPA IRUM1B.ISIPA
REMARKS OPR/GOLD VIRTUAL AIRLINES PER/C RMK/FROM SBFL /PIC GLD043 /WWW.GOLDVIRTUAL.COM.BR

 PENALIDADES DO VOO

Para entender como cada item é pontuado, consulte as regras de avaliação.

Nenhuma penalidade registrada para este voo.

 ANÁLISE DO POUSO

Vento durante o pouso: 302º/12 kt Proa durante o pouso: 273
V/S do Pouso: -326 ft/min IAS do Pouso: 129 kt
Força G no pouso: 1.0608 G Bank no pouso: -0.62
Pitch no Pouso -4.01 Flaps no Pouso 0
Nav Lights ON Landing Lights ON
Beacon Lights ON Strobe Lights ON

 MAPA DO VOO

 PERFIL VERTICAL DO VOO

 EVENTOS PRINCIPAIS DO VOO

DATAEVENTOIASALTITUDE
2020-08-18 13:25:22 GOLD ACARS VERSION 1.0.0.300
2020-08-18 13:25:22 BOARDING05
2020-08-18 13:26:27 NAV LIGHTS ON05
2020-08-18 13:42:58 NAV LIGHTS OFF032
2020-08-18 13:42:58 NAV LIGHTS ON032
2020-08-18 13:43:36 BCN LIGHTS ON032
2020-08-18 13:48:10 STARTING ENGINE 2032
2020-08-18 13:49:16 STARTING ENGINE 1032
2020-08-18 13:50:03 FLAP 49%032
2020-08-18 13:52:05 TAXI LIGHTS ON032
2020-08-18 13:53:53 TAXI TO THE RWY132
2020-08-18 13:59:11 LND LIGHTS ON131
2020-08-18 13:59:12 STB LIGHTS ON131
2020-08-18 14:01:34 CLIMBING16639
2020-08-18 14:01:37 GEAR UP169102
2020-08-18 14:01:39 TAXI LIGHTS OFF169132
2020-08-18 14:02:12 FLAP 24%1651542
2020-08-18 14:02:59 FLAP 0%1902813
2020-08-18 14:04:30 CRUISE2484992
2020-08-18 14:09:02 LND LIGHTS OFF25010028
2020-08-18 15:16:57 DESCEND24738010
2020-08-18 16:53:19 CLIMBING34624098
2020-08-18 17:07:16 CRUISE23637962
2020-08-18 17:51:41 DESCEND25638004
2020-08-18 18:01:30 CLIMBING26337074
2020-08-18 18:02:22 CRUISE25138004
2020-08-18 18:03:14 DESCEND25138008
2020-08-18 19:03:31 LND LIGHTS ON2349999
2020-08-18 19:12:38 FLAP 24%2006283
2020-08-18 19:18:11 GEAR DOWN1792976
2020-08-18 19:18:11 FLAP 49%1792974
2020-08-18 19:18:21 GEAR UP1742913
2020-08-18 19:18:22 GEAR DOWN1742905
2020-08-18 19:18:23 TAXI LIGHTS ON1732901
2020-08-18 19:18:51 FLAP 74%1532705
2020-08-18 19:18:55 FLAP 100%1492681
2020-08-18 19:22:59 LANDED - VS: -326 ft/min 129585
2020-08-18 19:22:59 LANDING WITH INCORRECT QNH - SET:1018 LOCAL: 1007129585
2020-08-18 19:23:19 AT THE GATE29577
2020-08-18 19:26:25 FLAP 24%4577
2020-08-18 19:26:26 FLAP 0%4577
2020-08-18 19:26:32 LND LIGHTS OFF5577
2020-08-18 19:34:32 STOPPING ENGINE 15577
2020-08-18 19:34:33 BCN LIGHTS OFF5577
2020-08-18 19:34:33 BEACON LIGHT OFF & ENGINE ON5577
2020-08-18 19:34:33 BCN LIGHTS ON5577
2020-08-18 19:34:36 STOPPING ENGINE 25577
2020-08-18 19:34:42 BCN LIGHTS OFF5577
2020-08-18 19:34:50 STB LIGHTS OFF5577
2020-08-18 19:34:57 TAXI LIGHTS OFF5577
2020-08-18 19:37:09 NAV LIGHTS OFF5577
2020-08-18 19:38:37 FLIGHT FINISHED5577

 DADOS DO ACARS

DATA IAS GS ALTITUDE COMBUSTÍVEL USADO OAT FASE DO VOO
2020-08-18 13:27:23 0 0 5 0 18 BOARDING
2020-08-18 13:28:23 0 0 5 0 18 BOARDING
2020-08-18 13:29:23 0 0 32 0 18 BOARDING
2020-08-18 13:30:24 0 0 32 0 18 BOARDING
2020-08-18 13:31:24 0 0 32 0 18 BOARDING
2020-08-18 13:32:24 0 0 32 0 18 BOARDING
2020-08-18 13:33:25 0 0 32 0 18 BOARDING
2020-08-18 13:34:25 0 0 32 0 18 BOARDING
2020-08-18 13:35:26 0 0 32 0 18 BOARDING
2020-08-18 13:36:26 0 0 32 0 18 BOARDING
2020-08-18 13:37:26 0 0 32 0 18 BOARDING
2020-08-18 13:38:27 0 0 32 0 18 BOARDING
2020-08-18 13:39:27 0 0 32 0 18 BOARDING
2020-08-18 13:40:27 0 0 32 0 18 BOARDING
2020-08-18 13:41:28 0 0 32 0 18 BOARDING
2020-08-18 13:42:28 0 0 32 0 18 BOARDING
2020-08-18 13:43:29 0 0 32 0 18 BOARDING
2020-08-18 13:44:29 0 0 32 0 18 BOARDING
2020-08-18 13:45:29 0 0 32 0 18 BOARDING
2020-08-18 13:46:30 0 0 32 0 18 BOARDING
2020-08-18 13:47:30 0 1 32 0 18 BOARDING
2020-08-18 13:48:31 0 2 32 0 18 BOARDING
2020-08-18 13:49:31 0 2 32 6 18 BOARDING
2020-08-18 13:50:31 0 2 32 19 18 BOARDING
2020-08-18 13:51:32 0 0 32 32 18 BOARDING
2020-08-18 13:52:32 0 1 32 45 18 BOARDING
2020-08-18 13:53:33 0 2 32 57 18 BOARDING
2020-08-18 13:54:33 9 8 32 70 18 BOARDING
2020-08-18 13:55:33 17 20 32 86 18 TAXI TO THE RWY
2020-08-18 13:56:34 19 23 31 100 18 TAXI TO THE RWY
2020-08-18 13:57:34 8 9 31 113 18 TAXI TO THE RWY
2020-08-18 13:58:34 1 0 31 125 18 TAXI TO THE RWY
2020-08-18 13:59:35 3 2 31 139 18 TAXI TO THE RWY
2020-08-18 14:00:35 3 0 32 153 18 TAXI TO THE RWY
2020-08-18 14:01:36 168 166 51 259 18 TAXI TO THE RWY
2020-08-18 14:02:36 175 175 2283 381 14 CLIMBING
2020-08-18 14:03:36 213 218 3609 470 11 CLIMBING
2020-08-18 14:04:37 245 271 4985 552 8 CLIMBING
2020-08-18 14:05:37 248 264 5026 581 8 CRUISE
2020-08-18 14:06:38 240 256 5014 609 8 CRUISE
2020-08-18 14:07:38 248 264 6402 675 5 CRUISE
2020-08-18 14:08:38 250 275 9124 767 0 CRUISE
2020-08-18 14:09:39 271 305 10983 845 -3 CRUISE
2020-08-18 14:10:39 305 348 11937 907 -5 CRUISE
2020-08-18 14:11:40 336 385 12936 973 -8 CRUISE
2020-08-18 14:12:40 335 385 13000 1008 -8 CRUISE
2020-08-18 14:13:40 335 385 13005 1050 -8 CRUISE
2020-08-18 14:14:41 335 385 13005 1092 -8 CRUISE
2020-08-18 14:15:41 337 395 14988 1163 -12 CRUISE
2020-08-18 14:16:41 336 404 17144 1236 -17 CRUISE
2020-08-18 14:17:42 336 412 18709 1291 -20 CRUISE
2020-08-18 14:18:42 336 419 20057 1341 -23 CRUISE
2020-08-18 14:19:43 336 425 21237 1388 -25 CRUISE
2020-08-18 14:20:43 336 425 22494 1440 -28 CRUISE
2020-08-18 14:21:43 336 424 23461 1480 -30 CRUISE
2020-08-18 14:22:44 336 427 24265 1515 -31 CRUISE
2020-08-18 14:23:44 327 422 25502 1555 -34 CRUISE
2020-08-18 14:24:44 317 416 26996 1604 -37 CRUISE
2020-08-18 14:25:45 308 411 28318 1648 -40 CRUISE
2020-08-18 14:26:45 300 418 29469 1688 -42 CRUISE
2020-08-18 14:27:46 294 421 30483 1727 -44 CRUISE
2020-08-18 14:28:46 288 411 31365 1761 -46 CRUISE
2020-08-18 14:29:46 278 394 32145 1795 -48 CRUISE
2020-08-18 14:30:47 275 389 32447 1826 -49 CRUISE
2020-08-18 14:31:47 278 392 32810 1858 -50 CRUISE
2020-08-18 14:32:48 275 391 33453 1887 -51 CRUISE
2020-08-18 14:33:48 271 388 34066 1916 -52 CRUISE
2020-08-18 14:34:48 268 388 34641 1943 -53 CRUISE
2020-08-18 14:35:49 265 391 35060 1965 -54 CRUISE
2020-08-18 14:36:49 263 391 35431 1987 -55 CRUISE
2020-08-18 14:37:50 260 390 35790 2010 -55 CRUISE
2020-08-18 14:38:50 258 388 36159 2035 -56 CRUISE
2020-08-18 14:39:50 256 387 36480 2060 -56 CRUISE
2020-08-18 14:40:51 254 387 36770 2086 -56 CRUISE
2020-08-18 14:41:51 253 386 36978 2106 -56 CRUISE
2020-08-18 14:42:51 252 386 37190 2129 -56 CRUISE
2020-08-18 14:43:52 251 385 37365 2149 -56 CRUISE
2020-08-18 14:44:52 249 385 37576 2178 -56 CRUISE
2020-08-18 14:45:53 248 384 37749 2204 -56 CRUISE
2020-08-18 14:46:53 247 384 37956 2232 -56 CRUISE
2020-08-18 14:47:53 247 384 38015 2256 -56 CRUISE
2020-08-18 14:48:54 247 384 38017 2281 -56 CRUISE
2020-08-18 14:49:54 247 384 38017 2305 -56 CRUISE
2020-08-18 14:50:54 247 384 38017 2331 -56 CRUISE
2020-08-18 14:51:55 247 384 38017 2355 -56 CRUISE
2020-08-18 14:52:55 247 384 38017 2381 -56 CRUISE
2020-08-18 14:53:56 247 384 38017 2405 -56 CRUISE
2020-08-18 14:54:56 247 384 38017 2430 -56 CRUISE
2020-08-18 14:55:56 247 384 38017 2451 -56 CRUISE
2020-08-18 14:56:57 247 384 38017 2469 -56 CRUISE
2020-08-18 14:57:57 247 384 38017 2493 -56 CRUISE
2020-08-18 14:58:58 247 384 38017 2516 -56 CRUISE
2020-08-18 14:59:58 247 384 38017 2538 -56 CRUISE
2020-08-18 15:00:58 247 384 38017 2560 -56 CRUISE
2020-08-18 15:01:59 247 384 38017 2584 -56 CRUISE
2020-08-18 15:02:59 251 380 38026 2603 -56 CRUISE
2020-08-18 15:04:00 247 370 38021 2622 -56 CRUISE
2020-08-18 15:05:00 247 370 38039 2646 -56 CRUISE
2020-08-18 15:06:00 247 371 38032 2671 -56 CRUISE
2020-08-18 15:07:01 247 371 38028 2693 -56 CRUISE
2020-08-18 15:08:01 247 371 38020 2716 -56 CRUISE
2020-08-18 15:09:02 247 371 38018 2738 -56 CRUISE
2020-08-18 15:10:02 247 371 38018 2759 -56 CRUISE
2020-08-18 15:11:02 247 371 38017 2782 -56 CRUISE
2020-08-18 15:12:03 247 371 38017 2803 -56 CRUISE
2020-08-18 15:13:03 247 371 38017 2821 -56 CRUISE
2020-08-18 15:14:04 247 371 38017 2843 -56 CRUISE
2020-08-18 15:15:04 247 371 38017 2862 -56 CRUISE
2020-08-18 15:16:04 247 371 38017 2880 -56 CRUISE
2020-08-18 15:17:05 249 380 37922 2901 -56 CRUISE
2020-08-18 15:18:05 248 381 37181 2914 -56 DESCEND
2020-08-18 15:19:06 249 385 36578 2926 -56 DESCEND
2020-08-18 15:20:06 265 405 35820 2953 -55 DESCEND
2020-08-18 15:21:06 273 411 35016 2978 -54 DESCEND
2020-08-18 15:22:07 277 413 34324 2998 -52 DESCEND
2020-08-18 15:23:07 281 415 33606 3020 -51 DESCEND
2020-08-18 15:24:08 287 417 32785 3045 -49 DESCEND
2020-08-18 15:25:08 291 418 32066 3067 -48 DESCEND
2020-08-18 15:26:08 297 421 31177 3096 -46 DESCEND
2020-08-18 15:27:09 303 423 30262 3126 -44 DESCEND
2020-08-18 15:28:09 309 425 29345 3158 -43 DESCEND
2020-08-18 15:29:09 315 428 28447 3189 -41 DESCEND
2020-08-18 15:30:10 320 430 27643 3219 -39 DESCEND
2020-08-18 15:31:10 326 419 26799 3252 -38 DESCEND
2020-08-18 15:32:11 332 420 25920 3288 -36 DESCEND
2020-08-18 15:33:11 337 423 25153 3320 -34 DESCEND
2020-08-18 15:34:11 343 426 24336 3356 -33 DESCEND
2020-08-18 15:35:12 345 427 24018 3383 -32 DESCEND
2020-08-18 15:36:12 345 427 24010 3420 -32 DESCEND
2020-08-18 15:37:13 345 427 24010 3451 -32 DESCEND
2020-08-18 15:38:13 345 427 24010 3488 -32 DESCEND
2020-08-18 15:39:13 345 427 24010 3526 -32 DESCEND
2020-08-18 15:40:14 345 427 24010 3563 -32 DESCEND
2020-08-18 15:41:14 345 427 24010 3595 -32 DESCEND
2020-08-18 15:42:15 345 427 24010 3627 -32 DESCEND
2020-08-18 15:43:15 345 427 24010 3663 -32 DESCEND
2020-08-18 15:44:15 345 427 24010 3704 -32 DESCEND
2020-08-18 15:45:16 345 427 24010 3746 -32 DESCEND
2020-08-18 15:46:16 345 427 24010 3789 -32 DESCEND
2020-08-18 15:47:17 345 427 24010 3829 -32 DESCEND
2020-08-18 15:48:17 345 427 24010 3875 -32 DESCEND
2020-08-18 15:49:17 345 427 24011 3916 -32 DESCEND
2020-08-18 15:50:18 345 427 24010 3955 -32 DESCEND
2020-08-18 15:51:18 345 427 24010 3988 -32 DESCEND
2020-08-18 15:52:19 345 427 24010 4020 -32 DESCEND
2020-08-18 15:53:19 345 427 24010 4055 -32 DESCEND
2020-08-18 15:54:19 345 427 24010 4098 -32 DESCEND
2020-08-18 15:55:20 345 427 24012 4132 -32 DESCEND
2020-08-18 15:56:20 345 427 24010 4166 -32 DESCEND
2020-08-18 15:57:20 345 427 24010 4207 -32 DESCEND
2020-08-18 15:58:21 345 427 24010 4251 -32 DESCEND
2020-08-18 15:59:21 345 427 24010 4294 -32 DESCEND
2020-08-18 16:00:22 345 427 24010 4332 -32 DESCEND
2020-08-18 16:01:22 345 427 24010 4366 -32 DESCEND
2020-08-18 16:02:22 345 427 24010 4398 -32 DESCEND
2020-08-18 16:03:23 345 427 24010 4432 -32 DESCEND
2020-08-18 16:04:23 345 427 24010 4470 -32 DESCEND
2020-08-18 16:05:24 345 427 24010 4517 -32 DESCEND
2020-08-18 16:06:24 345 427 24010 4565 -32 DESCEND
2020-08-18 16:07:24 345 427 24010 4611 -32 DESCEND
2020-08-18 16:08:25 345 427 24010 4657 -32 DESCEND
2020-08-18 16:09:25 345 427 24010 4692 -32 DESCEND
2020-08-18 16:10:27 345 427 24010 4726 -32 DESCEND
2020-08-18 16:11:27 345 427 24010 4767 -32 DESCEND
2020-08-18 16:12:28 345 427 24010 4814 -32 DESCEND
2020-08-18 16:13:28 345 427 24010 4857 -32 DESCEND
2020-08-18 16:14:28 345 427 24011 4895 -32 DESCEND
2020-08-18 16:15:29 345 427 24010 4933 -32 DESCEND
2020-08-18 16:16:29 345 427 24010 4972 -32 DESCEND
2020-08-18 16:17:29 345 427 24010 5007 -32 DESCEND
2020-08-18 16:18:30 345 427 24010 5042 -32 DESCEND
2020-08-18 16:19:30 345 427 24010 5076 -32 DESCEND
2020-08-18 16:20:31 345 427 24010 5119 -32 DESCEND
2020-08-18 16:21:31 345 427 24010 5163 -32 DESCEND
2020-08-18 16:22:31 345 427 24010 5206 -32 DESCEND
2020-08-18 16:23:32 345 427 24010 5251 -32 DESCEND
2020-08-18 16:24:32 345 427 24010 5292 -32 DESCEND
2020-08-18 16:25:33 345 427 24010 5326 -32 DESCEND
2020-08-18 16:26:33 345 427 24010 5352 -32 DESCEND
2020-08-18 16:27:33 345 427 24010 5392 -32 DESCEND
2020-08-18 16:28:34 345 427 24010 5436 -32 DESCEND
2020-08-18 16:29:34 345 427 24010 5482 -32 DESCEND
2020-08-18 16:30:35 345 427 24011 5525 -32 DESCEND
2020-08-18 16:31:35 345 427 24010 5569 -32 DESCEND
2020-08-18 16:32:35 345 427 24010 5604 -32 DESCEND
2020-08-18 16:33:36 345 427 24010 5637 -32 DESCEND
2020-08-18 16:34:36 345 427 24011 5677 -32 DESCEND
2020-08-18 16:35:37 345 426 24010 5713 -32 DESCEND
2020-08-18 16:36:37 345 426 24010 5742 -32 DESCEND
2020-08-18 16:37:37 345 426 24010 5775 -32 DESCEND
2020-08-18 16:38:38 345 426 24010 5811 -32 DESCEND
2020-08-18 16:39:38 345 426 24010 5848 -32 DESCEND
2020-08-18 16:40:39 345 426 24010 5886 -32 DESCEND
2020-08-18 16:41:39 345 426 24010 5928 -32 DESCEND
2020-08-18 16:42:39 345 426 24010 5969 -32 DESCEND
2020-08-18 16:43:40 345 426 24010 6009 -32 DESCEND
2020-08-18 16:44:40 345 426 24010 6055 -32 DESCEND
2020-08-18 16:45:40 345 426 24010 6099 -32 DESCEND
2020-08-18 16:46:41 345 426 24010 6147 -32 DESCEND
2020-08-18 16:47:41 345 426 24010 6193 -32 DESCEND
2020-08-18 16:48:42 345 426 24010 6241 -32 DESCEND
2020-08-18 16:49:42 345 426 24010 6288 -32 DESCEND
2020-08-18 16:50:42 342 430 24032 6336 -31 DESCEND
2020-08-18 16:51:43 343 456 24057 6392 -30 DESCEND
2020-08-18 16:52:43 345 466 24072 6438 -29 DESCEND
2020-08-18 16:53:44 342 468 24767 6491 -29 DESCEND
2020-08-18 16:54:44 330 463 26348 6546 -32 CLIMBING
2020-08-18 16:55:44 321 460 27617 6595 -34 CLIMBING
2020-08-18 16:56:45 313 457 28935 6643 -37 CLIMBING
2020-08-18 16:57:45 305 454 30073 6687 -39 CLIMBING
2020-08-18 16:58:46 300 452 30949 6720 -41 CLIMBING
2020-08-18 16:59:46 294 449 31833 6756 -43 CLIMBING
2020-08-18 17:00:46 288 445 32765 6794 -46 CLIMBING
2020-08-18 17:01:47 283 443 33530 6827 -48 CLIMBING
2020-08-18 17:02:47 279 440 34191 6858 -50 CLIMBING
2020-08-18 17:03:47 275 438 34806 6887 -52 CLIMBING
2020-08-18 17:04:48 260 421 35981 6918 -55 CLIMBING
2020-08-18 17:05:48 250 413 36907 6949 -56 CLIMBING
2020-08-18 17:06:49 238 402 37762 6978 -56 CLIMBING
2020-08-18 17:07:49 239 406 38018 7006 -56 CLIMBING
2020-08-18 17:08:49 243 414 38017 7031 -56 CRUISE
2020-08-18 17:09:50 249 422 38016 7058 -56 CRUISE
2020-08-18 17:10:50 253 429 38016 7082 -56 CRUISE
2020-08-18 17:11:51 257 435 38017 7109 -56 CRUISE
2020-08-18 17:12:51 258 436 38016 7136 -56 CRUISE
2020-08-18 17:13:51 258 436 38016 7159 -56 CRUISE
2020-08-18 17:14:52 258 436 38016 7187 -56 CRUISE
2020-08-18 17:15:52 258 436 38016 7217 -56 CRUISE
2020-08-18 17:16:52 258 436 38016 7243 -56 CRUISE
2020-08-18 17:17:53 258 436 38016 7267 -56 CRUISE
2020-08-18 17:18:53 258 436 38016 7292 -56 CRUISE
2020-08-18 17:19:54 258 436 38016 7322 -56 CRUISE
2020-08-18 17:20:54 258 436 38016 7350 -56 CRUISE
2020-08-18 17:21:54 258 436 38016 7378 -56 CRUISE
2020-08-18 17:22:55 258 436 38016 7408 -56 CRUISE
2020-08-18 17:23:55 258 436 38016 7437 -56 CRUISE
2020-08-18 17:24:56 258 436 38016 7462 -56 CRUISE
2020-08-18 17:25:56 258 436 38016 7488 -56 CRUISE
2020-08-18 17:26:56 258 436 38016 7512 -56 CRUISE
2020-08-18 17:27:57 258 436 38016 7535 -56 CRUISE
2020-08-18 17:28:57 258 436 38016 7560 -56 CRUISE
2020-08-18 17:29:57 258 436 38016 7584 -56 CRUISE
2020-08-18 17:30:58 258 436 38016 7603 -56 CRUISE
2020-08-18 17:31:58 258 436 38016 7633 -56 CRUISE
2020-08-18 17:32:59 258 436 38016 7662 -56 CRUISE
2020-08-18 17:33:59 258 436 38016 7689 -56 CRUISE
2020-08-18 17:34:59 258 436 38016 7715 -56 CRUISE
2020-08-18 17:36:00 258 436 38016 7745 -56 CRUISE
2020-08-18 17:37:00 258 436 38016 7769 -56 CRUISE
2020-08-18 17:38:00 258 436 38016 7795 -56 CRUISE
2020-08-18 17:39:01 258 436 38016 7825 -56 CRUISE
2020-08-18 17:40:01 258 436 38016 7856 -56 CRUISE
2020-08-18 17:41:02 258 436 38016 7885 -56 CRUISE
2020-08-18 17:42:02 258 436 38016 7916 -56 CRUISE
2020-08-18 17:43:02 258 436 38016 7948 -56 CRUISE
2020-08-18 17:44:03 258 436 38016 7979 -56 CRUISE
2020-08-18 17:45:03 258 436 38016 8010 -56 CRUISE
2020-08-18 17:46:04 258 436 38016 8043 -56 CRUISE
2020-08-18 17:47:04 258 436 38016 8075 -56 CRUISE
2020-08-18 17:48:04 258 436 38016 8109 -56 CRUISE
2020-08-18 17:49:05 258 436 38016 8138 -56 CRUISE
2020-08-18 17:50:05 258 436 38016 8171 -56 CRUISE
2020-08-18 17:51:05 258 439 38016 8206 -56 CRUISE
2020-08-18 17:52:06 258 437 37181 8227 -56 CRUISE
2020-08-18 17:53:06 264 445 37015 8258 -56 DESCEND
2020-08-18 17:54:07 264 445 37015 8288 -56 DESCEND
2020-08-18 17:55:07 264 445 37015 8321 -56 DESCEND
2020-08-18 17:56:07 264 445 37015 8355 -56 DESCEND
2020-08-18 17:57:08 264 445 37015 8388 -56 DESCEND
2020-08-18 17:58:08 264 445 37015 8424 -56 DESCEND
2020-08-18 17:59:09 264 445 37015 8461 -56 DESCEND
2020-08-18 18:00:09 264 445 37015 8499 -56 DESCEND
2020-08-18 18:01:09 264 445 37015 8533 -56 DESCEND
2020-08-18 18:02:10 253 436 37816 8573 -56 DESCEND
2020-08-18 18:03:10 252 437 38015 8611 -56 CLIMBING
2020-08-18 18:04:10 264 446 37132 8639 -56 CRUISE
2020-08-18 18:05:11 264 445 37015 8673 -56 DESCEND
2020-08-18 18:06:11 264 445 37015 8704 -56 DESCEND
2020-08-18 18:07:12 264 445 37015 8733 -56 DESCEND
2020-08-18 18:08:12 264 445 37015 8766 -56 DESCEND
2020-08-18 18:09:12 264 445 37015 8798 -56 DESCEND
2020-08-18 18:10:13 264 445 37015 8828 -56 DESCEND
2020-08-18 18:11:13 264 446 37015 8860 -56 DESCEND
2020-08-18 18:12:14 264 446 37015 8897 -56 DESCEND
2020-08-18 18:13:14 264 446 37015 8934 -56 DESCEND
2020-08-18 18:14:14 264 446 37015 8972 -56 DESCEND
2020-08-18 18:15:15 264 446 37015 9006 -56 DESCEND
2020-08-18 18:16:15 264 446 37015 9042 -56 DESCEND
2020-08-18 18:17:16 264 446 37015 9081 -56 DESCEND
2020-08-18 18:18:16 264 446 37015 9115 -56 DESCEND
2020-08-18 18:19:16 264 446 37015 9150 -56 DESCEND
2020-08-18 18:20:17 264 446 37015 9187 -56 DESCEND
2020-08-18 18:21:17 264 446 37015 9223 -56 DESCEND
2020-08-18 18:22:17 264 446 37015 9257 -56 DESCEND
2020-08-18 18:23:18 264 446 37015 9285 -56 DESCEND
2020-08-18 18:24:18 264 446 37015 9316 -56 DESCEND
2020-08-18 18:25:19 264 446 37015 9350 -56 DESCEND
2020-08-18 18:26:19 264 446 37015 9385 -56 DESCEND
2020-08-18 18:27:19 264 446 37015 9418 -56 DESCEND
2020-08-18 18:28:20 264 446 37015 9451 -56 DESCEND
2020-08-18 18:29:20 264 446 37015 9482 -56 DESCEND
2020-08-18 18:30:21 264 446 37015 9514 -56 DESCEND
2020-08-18 18:31:21 264 446 37015 9545 -56 DESCEND
2020-08-18 18:32:21 264 446 37015 9579 -56 DESCEND
2020-08-18 18:33:22 264 446 37015 9614 -56 DESCEND
2020-08-18 18:34:22 264 446 37015 9649 -56 DESCEND
2020-08-18 18:35:22 264 446 37015 9681 -56 DESCEND
2020-08-18 18:36:23 264 446 37015 9715 -56 DESCEND
2020-08-18 18:37:23 264 446 37015 9750 -56 DESCEND
2020-08-18 18:38:24 264 446 37015 9785 -56 DESCEND
2020-08-18 18:39:24 264 446 37015 9820 -56 DESCEND
2020-08-18 18:40:24 264 446 37015 9856 -56 DESCEND
2020-08-18 18:41:25 264 446 37015 9890 -56 DESCEND
2020-08-18 18:42:25 264 446 37015 9925 -56 DESCEND
2020-08-18 18:43:26 264 446 37015 9960 -56 DESCEND
2020-08-18 18:44:26 264 446 37015 9995 -56 DESCEND
2020-08-18 18:45:26 264 446 37015 10029 -56 DESCEND
2020-08-18 18:46:27 264 446 37015 10066 -56 DESCEND
2020-08-18 18:47:27 264 446 37015 10104 -56 DESCEND
2020-08-18 18:48:28 264 446 37015 10140 -56 DESCEND
2020-08-18 18:49:28 264 446 37015 10175 -56 DESCEND
2020-08-18 18:50:28 264 446 37015 10209 -56 DESCEND
2020-08-18 18:51:29 257 435 37015 10236 -56 DESCEND
2020-08-18 18:52:29 273 438 34450 10244 -52 DESCEND
2020-08-18 18:53:29 288 439 31395 10247 -46 DESCEND
2020-08-18 18:54:30 306 443 28307 10250 -40 DESCEND
2020-08-18 18:55:30 331 449 24275 10254 -32 DESCEND
2020-08-18 18:56:31 328 428 21530 10260 -27 DESCEND
2020-08-18 18:57:31 326 411 19064 10264 -22 DESCEND
2020-08-18 18:58:31 323 393 16724 10270 -17 DESCEND
2020-08-18 18:59:32 321 378 14234 10278 -12 DESCEND
2020-08-18 19:00:32 315 359 12019 10285 -8 DESCEND
2020-08-18 19:01:33 245 275 11050 10294 -6 DESCEND
2020-08-18 19:02:33 242 270 10469 10309 -5 DESCEND
2020-08-18 19:03:33 234 259 9982 10327 -4 DESCEND
2020-08-18 19:04:34 237 258 8856 10336 -2 DESCEND
2020-08-18 19:05:34 238 255 7718 10344 0 DESCEND
2020-08-18 19:06:35 217 228 6979 10348 1 DESCEND
2020-08-18 19:07:35 199 210 7018 10370 1 DESCEND
2020-08-18 19:08:35 199 210 7019 10393 1 DESCEND
2020-08-18 19:09:36 199 210 7020 10420 1 DESCEND
2020-08-18 19:10:36 199 214 7018 10449 1 DESCEND
2020-08-18 19:11:36 199 223 7004 10480 1 DESCEND
2020-08-18 19:12:37 200 223 6306 10496 2 DESCEND
2020-08-18 19:13:37 199 209 5252 10503 4 DESCEND
2020-08-18 19:14:38 197 198 4347 10509 6 DESCEND
2020-08-18 19:15:38 195 194 3626 10516 8 DESCEND
2020-08-18 19:16:38 179 176 3336 10527 8 DESCEND
2020-08-18 19:17:39 179 177 3099 10551 9 DESCEND
2020-08-18 19:18:39 163 159 2793 10566 10 DESCEND
2020-08-18 19:19:39 143 137 2352 10586 10 DESCEND
2020-08-18 19:20:40 141 134 1840 10606 11 DESCEND
2020-08-18 19:21:40 140 131 1260 10634 13 DESCEND
2020-08-18 19:22:41 142 131 734 10666 14 DESCEND
2020-08-18 19:23:41 28 20 577 10697 14 DESCEND
2020-08-18 19:24:41 29 21 577 10709 14 AT THE GATE
2020-08-18 19:25:42 21 12 577 10723 14 AT THE GATE
2020-08-18 19:26:42 8 3 577 10738 14 AT THE GATE
2020-08-18 19:27:43 4 6 577 10751 14 AT THE GATE
2020-08-18 19:28:43 4 12 577 10764 14 AT THE GATE
2020-08-18 19:29:43 11 18 577 10777 14 AT THE GATE
2020-08-18 19:30:44 12 19 577 10789 14 AT THE GATE
2020-08-18 19:31:44 13 13 577 10802 14 AT THE GATE
2020-08-18 19:32:44 3 12 577 10814 14 AT THE GATE
2020-08-18 19:33:45 10 2 577 10828 14 AT THE GATE
2020-08-18 19:34:45 5 0 577 10841 14 AT THE GATE
2020-08-18 19:35:46 5 0 577 10841 14 AT THE GATE
2020-08-18 19:36:46 5 0 577 10841 14 AT THE GATE
2020-08-18 19:37:46 5 0 577 10841 14 AT THE GATE